createdAt,value
2023-04-27T00:01:47.534Z,96043.25
2023-04-27T00:04:15.150Z,96043.06
2023-04-27T00:06:43.376Z,96039.94
2023-04-27T00:09:10.698Z,96041.91
2023-04-27T00:11:38.173Z,96033.16
2023-04-27T00:14:05.432Z,96037.59
2023-04-27T00:16:32.855Z,96034.13
2023-04-27T00:19:01.156Z,96040.09
2023-04-27T00:21:28.502Z,96038.16
2023-04-27T00:23:55.816Z,96047.59
2023-04-27T00:26:23.261Z,96037.78
2023-04-27T00:28:53.163Z,96044.59
2023-04-27T00:31:20.514Z,96040.84
2023-04-27T00:33:49.925Z,96042.28
2023-04-27T00:36:17.322Z,96034.13
2023-04-27T00:38:44.572Z,96042.47
2023-04-27T00:41:11.930Z,96036.09
2023-04-27T00:43:44.727Z,96030.72
2023-04-27T00:46:15.551Z,96031.56
2023-04-27T00:48:43.952Z,96033.34
2023-04-27T00:51:11.336Z,96031.56
2023-04-27T00:53:39.133Z,96033.34
2023-04-27T00:56:08.287Z,96029.03
2023-04-27T00:58:36.026Z,96035.31
2023-04-27T01:01:04.353Z,96039.00
2023-04-27T01:03:32.284Z,96036.63
2023-04-27T01:06:02.071Z,96037.72
2023-04-27T01:08:30.003Z,96032.84
2023-04-27T01:10:57.549Z,96033.94
2023-04-27T01:13:25.135Z,96041.13
2023-04-27T01:15:52.420Z,96036.13
2023-04-27T01:18:19.828Z,96038.16
2023-04-27T01:20:47.120Z,96036.63
2023-04-27T01:23:17.081Z,96034.13
2023-04-27T01:25:45.053Z,96033.28
2023-04-27T01:28:13.024Z,96034.97
2023-04-27T01:30:40.252Z,96032.44
2023-04-27T01:33:07.645Z,96031.38
2023-04-27T01:35:34.978Z,96037.47
2023-04-27T01:38:03.079Z,96038.16
2023-04-27T01:40:30.391Z,96040.78
2023-04-27T01:42:57.712Z,96042.47
2023-04-27T01:45:25.371Z,96045.91
2023-04-27T01:47:53.755Z,96045.91
2023-04-27T01:50:21.861Z,96043.28
2023-04-27T01:52:49.107Z,96051.06
2023-04-27T01:55:16.444Z,96051.78
2023-04-27T01:57:44.062Z,96052.75
2023-04-27T02:00:12.655Z,96057.88
2023-04-27T02:02:51.581Z,96058.72
2023-04-27T02:05:19.292Z,96053.44
2023-04-27T02:07:47.598Z,96048.03
2023-04-27T02:10:15.877Z,96049.72
2023-04-27T02:12:43.189Z,96047.91
2023-04-27T02:15:10.784Z,96051.38
2023-04-27T02:17:39.426Z,96048.88
2023-04-27T02:20:07.721Z,96045.41
2023-04-27T02:22:35.084Z,96049.88
2023-04-27T02:25:02.542Z,96054.28
2023-04-27T02:27:29.884Z,96052.63
2023-04-27T02:29:58.688Z,96050.00
2023-04-27T02:32:26.490Z,96058.84
2023-04-27T02:34:53.735Z,96057.28
2023-04-27T02:37:21.262Z,96061.00
2023-04-27T02:39:48.453Z,96055.16
2023-04-27T02:42:16.801Z,96050.25
2023-04-27T02:44:44.150Z,96050.63
2023-04-27T02:47:12.704Z,96055.56
2023-04-27T02:49:40.433Z,96051.78
2023-04-27T02:52:08.281Z,96053.91
2023-04-27T02:54:35.646Z,96057.06
2023-04-27T02:57:03.207Z,96059.47
2023-04-27T02:59:30.527Z,96060.94
2023-04-27T03:01:57.925Z,96058.09
2023-04-27T03:04:25.229Z,96058.81
2023-04-27T03:06:52.569Z,96062.16
2023-04-27T03:09:19.904Z,96055.97
2023-04-27T03:11:47.121Z,96057.41
2023-04-27T03:14:14.380Z,96056.69
2023-04-27T03:16:41.710Z,96058.03
2023-04-27T03:19:08.926Z,96059.19
2023-04-27T03:21:36.799Z,96062.19
2023-04-27T03:24:04.284Z,96059.91
2023-04-27T03:26:32.769Z,96070.78
2023-04-27T03:29:00.104Z,96066.59
2023-04-27T03:31:29.459Z,96074.97
2023-04-27T03:33:57.473Z,96069.25
2023-04-27T03:36:24.768Z,96080.19
2023-04-27T03:38:51.984Z,96076.38
2023-04-27T03:41:19.653Z,96080.88
2023-04-27T03:43:48.165Z,96089.97
2023-04-27T03:46:15.438Z,96089.13
2023-04-27T03:48:44.561Z,96089.25
2023-04-27T03:51:11.916Z,96089.59
2023-04-27T03:53:39.238Z,96083.75
2023-04-27T03:56:08.346Z,96080.75
2023-04-27T03:58:35.626Z,96083.59
2023-04-27T04:01:22.601Z,96089.19
2023-04-27T04:03:52.298Z,96093.50
2023-04-27T04:06:19.722Z,96099.59
2023-04-27T04:08:47.049Z,96104.00
2023-04-27T04:11:14.446Z,96113.53
2023-04-27T04:13:42.561Z,96115.69
2023-04-27T04:16:10.732Z,96111.66
2023-04-27T04:18:39.881Z,96109.16
2023-04-27T04:21:07.221Z,96118.88
2023-04-27T04:23:34.540Z,96121.16
2023-04-27T04:26:02.537Z,96121.03
2023-04-27T04:28:34.406Z,96113.91
2023-04-27T04:31:02.427Z,96124.16
2023-04-27T04:33:29.825Z,96122.38
2023-04-27T04:35:59.331Z,96125.09
2023-04-27T04:38:26.877Z,96117.81
2023-04-27T04:40:54.729Z,96123.84
2023-04-27T04:43:22.676Z,96127.19
2023-04-27T04:45:49.993Z,96129.78
2023-04-27T04:48:18.600Z,96132.53
2023-04-27T04:50:46.465Z,96128.31
2023-04-27T04:53:14.181Z,96125.34
2023-04-27T04:55:42.878Z,96125.25
2023-04-27T04:58:10.652Z,96135.75
2023-04-27T05:00:38.561Z,96134.91
2023-04-27T05:03:08.026Z,96135.25
2023-04-27T05:05:35.479Z,96139.88
2023-04-27T05:08:03.119Z,96141.63
2023-04-27T05:10:30.778Z,96144.88
2023-04-27T05:12:58.290Z,96140.28
2023-04-27T05:15:25.605Z,96148.56
2023-04-27T05:17:54.716Z,96139.19
2023-04-27T05:20:22.010Z,96144.13
2023-04-27T05:22:49.327Z,96150.69
2023-04-27T05:25:16.686Z,96143.44
2023-04-27T05:27:43.901Z,96143.56
2023-04-27T05:30:11.753Z,96150.69
2023-04-27T05:32:39.946Z,96150.19
2023-04-27T05:35:07.506Z,96144.78
2023-04-27T05:37:37.792Z,96142.06
2023-04-27T05:40:10.082Z,96145.72
2023-04-27T05:42:37.428Z,96141.72
2023-04-27T05:45:05.198Z,96146.06
2023-04-27T05:47:32.533Z,96155.38
2023-04-27T05:50:00.054Z,96160.81
2023-04-27T05:52:31.385Z,96162.03
2023-04-27T05:54:59.369Z,96167.13
2023-04-27T05:57:27.276Z,96177.66
2023-04-27T05:59:54.618Z,96173.84
2023-04-27T06:02:23.035Z,96164.81
2023-04-27T06:04:50.457Z,96161.03
2023-04-27T06:07:17.783Z,96163.03
2023-04-27T06:09:44.974Z,96159.69
2023-04-27T06:12:12.264Z,96159.91
2023-04-27T06:14:39.574Z,96157.78
2023-04-27T06:17:07.165Z,96158.69
2023-04-27T06:19:34.473Z,96159.03
2023-04-27T06:22:01.811Z,96162.25
2023-04-27T06:24:29.108Z,96149.09
2023-04-27T06:26:57.506Z,96156.41
2023-04-27T06:29:24.788Z,96155.75
2023-04-27T06:31:52.217Z,96163.16
2023-04-27T06:34:19.657Z,96171.31
2023-04-27T06:36:47.301Z,96165.16
2023-04-27T06:39:14.935Z,96163.63
2023-04-27T06:41:42.374Z,96172.63
2023-04-27T06:44:19.103Z,96174.03
2023-04-27T06:46:46.344Z,96170.31
2023-04-27T06:49:13.831Z,96169.72
2023-04-27T06:51:41.559Z,96165.22
2023-04-27T06:54:08.839Z,96175.84
2023-04-27T06:56:36.150Z,96167.72
2023-04-27T06:59:03.471Z,96169.59
2023-04-27T07:01:30.925Z,96165.25
2023-04-27T07:03:58.395Z,96171.84
2023-04-27T07:06:27.146Z,96180.16
2023-04-27T07:08:54.575Z,96175.94
2023-04-27T07:11:21.934Z,96179.03
2023-04-27T07:13:49.250Z,96169.72
2023-04-27T07:16:17.464Z,96177.22
2023-04-27T07:18:44.836Z,96165.22
2023-04-27T07:21:12.328Z,96166.38
2023-04-27T07:23:41.852Z,96161.81
2023-04-27T07:26:10.330Z,96159.56
2023-04-27T07:28:38.698Z,96157.50
2023-04-27T07:31:07.048Z,96165.78
2023-04-27T07:33:35.023Z,96158.16
2023-04-27T07:36:03.036Z,96167.44
2023-04-27T07:38:31.790Z,96163.56
2023-04-27T07:41:05.026Z,96167.53
2023-04-27T07:43:32.910Z,96172.50
2023-04-27T07:46:00.255Z,96172.50
2023-04-27T07:48:29.175Z,96172.25
2023-04-27T07:50:56.676Z,96178.69
2023-04-27T07:53:24.279Z,96170.25
2023-04-27T07:55:51.761Z,96173.81
2023-04-27T07:58:20.574Z,96173.97
2023-04-27T08:00:47.943Z,96177.06
2023-04-27T08:03:15.628Z,96168.56
2023-04-27T08:05:43.281Z,96180.66
2023-04-27T08:08:11.355Z,96182.88
2023-04-27T08:10:38.754Z,96173.97
2023-04-27T08:13:10.092Z,96183.13
2023-04-27T08:15:37.921Z,96177.41
2023-04-27T08:18:05.414Z,96171.97
2023-04-27T08:20:32.662Z,96179.50
2023-04-27T08:23:00.140Z,96178.41
2023-04-27T08:25:27.548Z,96178.28
2023-04-27T08:27:54.921Z,96181.09
2023-04-27T08:30:22.262Z,96185.03
2023-04-27T08:32:50.106Z,96183.16
2023-04-27T08:35:17.440Z,96185.28
2023-04-27T08:37:44.811Z,96185.66
2023-04-27T08:40:12.453Z,96187.03
2023-04-27T08:42:42.781Z,96180.94
2023-04-27T08:45:10.278Z,96176.81
2023-04-27T08:47:43.492Z,96186.03
2023-04-27T08:50:13.179Z,96183.97
2023-04-27T08:52:40.534Z,96178.19
2023-04-27T08:55:08.830Z,96177.91
2023-04-27T08:57:36.234Z,96184.31
2023-04-27T09:00:13.562Z,96180.34
2023-04-27T09:02:48.507Z,96183.78
2023-04-27T09:05:24.974Z,96175.25
2023-04-27T09:08:09.060Z,96184.16
2023-04-27T09:10:46.434Z,96165.13
2023-04-27T09:13:14.107Z,96169.59
2023-04-27T09:15:52.146Z,96174.97
2023-04-27T09:18:23.847Z,96166.78
2023-04-27T09:20:52.546Z,96165.38
2023-04-27T09:23:42.280Z,96168.47
2023-04-27T09:26:09.562Z,96161.72
2023-04-27T09:28:40.759Z,96160.63
2023-04-27T09:31:09.726Z,96163.66
2023-04-27T09:33:37.457Z,96151.34
2023-04-27T09:36:07.178Z,96158.66
2023-04-27T09:38:34.864Z,96142.97
2023-04-27T09:41:03.615Z,96142.13
2023-04-27T09:43:31.998Z,96144.41
2023-04-27T09:45:59.473Z,96147.75
2023-04-27T09:48:27.301Z,96143.25
2023-04-27T09:50:54.705Z,96138.75
2023-04-27T09:53:29.043Z,96132.41
2023-04-27T09:56:08.643Z,96149.16
2023-04-27T09:59:08.111Z,96133.75
2023-04-27T10:01:51.032Z,96135.44
2023-04-27T10:04:32.840Z,96130.63
2023-04-27T10:07:06.050Z,96133.06
2023-04-27T10:09:40.481Z,96130.19
2023-04-27T10:12:23.012Z,96121.66
2023-04-27T10:15:01.019Z,96118.03
2023-04-27T10:17:33.514Z,96102.06
2023-04-27T10:20:03.352Z,96105.41
2023-04-27T10:22:48.659Z,96108.88
2023-04-27T10:25:21.993Z,96107.03
2023-04-27T10:28:15.909Z,96106.00
2023-04-27T10:30:49.777Z,96097.34
2023-04-27T10:33:20.115Z,96097.22
2023-04-27T10:35:58.043Z,96097.03
2023-04-27T10:38:30.849Z,96099.69
2023-04-27T10:41:03.373Z,96101.25
2023-04-27T10:43:32.603Z,96101.97
2023-04-27T10:46:12.104Z,96101.59
2023-04-27T10:48:43.950Z,96099.41
2023-04-27T10:51:16.900Z,96096.78
2023-04-27T10:53:44.168Z,96092.47
2023-04-27T10:56:11.725Z,96092.19
2023-04-27T11:01:09.723Z,96087.59
2023-04-27T11:03:38.153Z,96081.84
2023-04-27T11:06:06.619Z,96085.53
2023-04-27T11:08:37.165Z,96081.63
2023-04-27T11:11:06.650Z,96088.81
2023-04-27T11:13:34.443Z,96083.16
2023-04-27T11:16:01.781Z,96089.72
2023-04-27T11:18:33.570Z,96097.78
2023-04-27T11:21:15.989Z,96100.78
2023-04-27T11:23:43.657Z,96085.09
2023-04-27T11:26:18.116Z,96080.81
2023-04-27T11:28:57.687Z,96092.19
2023-04-27T11:31:25.885Z,96087.84
2023-04-27T11:33:56.103Z,96083.53
2023-04-27T11:36:25.548Z,96091.78
2023-04-27T11:38:58.301Z,96092.22
2023-04-27T11:41:37.539Z,96090.94
2023-04-27T11:44:09.496Z,96093.63
2023-04-27T11:46:38.296Z,96093.84
2023-04-27T11:49:07.245Z,96094.47
2023-04-27T11:51:34.974Z,96097.38
2023-04-27T11:54:04.032Z,96096.53
2023-04-27T11:56:42.389Z,96095.72
2023-04-27T11:59:21.112Z,96105.22
2023-04-27T12:01:49.533Z,96099.16
2023-04-27T12:04:17.689Z,96100.81
2023-04-27T12:06:45.274Z,96092.72
2023-04-27T12:09:12.580Z,96092.53
2023-04-27T12:11:39.921Z,96097.31
2023-04-27T12:14:08.478Z,96102.91
2023-04-27T12:16:36.014Z,96092.78
2023-04-27T12:19:03.511Z,96090.72
2023-04-27T12:21:32.659Z,96094.28
2023-04-27T12:23:59.975Z,96097.97
2023-04-27T12:26:27.218Z,96086.00
2023-04-27T12:28:54.506Z,96091.16
2023-04-27T12:31:27.579Z,96087.84
2023-04-27T12:33:55.274Z,96089.50
2023-04-27T12:36:22.499Z,96093.84
2023-04-27T12:38:49.789Z,96090.53
2023-04-27T12:41:17.025Z,96092.19
2023-04-27T12:43:46.252Z,96096.75
2023-04-27T12:46:13.642Z,96093.84
2023-04-27T12:48:41.694Z,96088.66
2023-04-27T12:51:09.307Z,96080.00
2023-04-27T12:53:36.643Z,96082.88
2023-04-27T12:56:05.084Z,96084.72
2023-04-27T12:58:32.847Z,96084.34
2023-04-27T13:01:00.137Z,96078.09
2023-04-27T13:03:27.680Z,96078.63
2023-04-27T13:05:54.994Z,96082.72
2023-04-27T13:08:22.196Z,96077.50
2023-04-27T13:10:49.581Z,96073.97
2023-04-27T13:13:16.954Z,96074.69
2023-04-27T13:15:44.325Z,96068.41
2023-04-27T13:18:12.079Z,96071.44
2023-04-27T13:20:39.487Z,96074.50
2023-04-27T13:23:07.064Z,96072.78
2023-04-27T13:25:34.719Z,96069.72
2023-04-27T13:28:02.155Z,96061.25
2023-04-27T13:30:31.046Z,96057.78
2023-04-27T13:33:10.481Z,96066.66
2023-04-27T13:35:46.027Z,96064.81
2023-04-27T13:38:13.701Z,96069.25
2023-04-27T13:40:41.311Z,96064.31
2023-04-27T13:43:08.540Z,96059.03
2023-04-27T13:45:35.769Z,96057.72
2023-04-27T13:48:03.126Z,96052.47
2023-04-27T13:50:30.512Z,96057.66
2023-04-27T13:52:57.755Z,96046.88
2023-04-27T13:55:25.108Z,96048.59
2023-04-27T13:57:52.343Z,96040.38
2023-04-27T14:00:20.195Z,96038.34
2023-04-27T14:02:47.527Z,96050.22
2023-04-27T14:05:14.901Z,96037.19
2023-04-27T14:07:42.171Z,96038.22
2023-04-27T14:10:09.841Z,96042.75
2023-04-27T14:12:37.434Z,96032.31
2023-04-27T14:15:05.180Z,96045.38
2023-04-27T14:17:32.742Z,96042.38
2023-04-27T14:20:00.103Z,96038.94
2023-04-27T14:22:27.343Z,96038.75
2023-04-27T14:24:56.760Z,96036.56
2023-04-27T14:27:24.103Z,96044.91
2023-04-27T14:29:51.443Z,96029.56
2023-04-27T14:32:18.860Z,96036.47
2023-04-27T14:34:46.347Z,96034.03
2023-04-27T14:37:13.641Z,96034.44
2023-04-27T14:39:42.905Z,96033.91
2023-04-27T14:42:12.404Z,96040.13
2023-04-27T14:44:39.646Z,96043.00
2023-04-27T14:47:07.169Z,96035.75
2023-04-27T14:49:34.515Z,96048.16
2023-04-27T14:52:04.879Z,96046.50
2023-04-27T14:54:32.748Z,96040.66
2023-04-27T14:57:01.593Z,96033.81
2023-04-27T14:59:29.366Z,96025.97
2023-04-27T15:01:56.626Z,96027.97
2023-04-27T15:04:24.133Z,96041.13
2023-04-27T15:06:52.095Z,96041.06
2023-04-27T15:09:19.508Z,96034.06
2023-04-27T15:11:47.175Z,96032.16
2023-04-27T15:14:14.525Z,96035.78
2023-04-27T15:16:41.749Z,96033.38
2023-04-27T15:19:09.117Z,96042.72
2023-04-27T15:21:36.467Z,96041.53
2023-04-27T15:24:03.898Z,96034.31
2023-04-27T15:26:31.172Z,96039.72
2023-04-27T15:28:59.843Z,96037.25
2023-04-27T15:31:27.279Z,96033.13
2023-04-27T15:33:55.165Z,96027.78
2023-04-27T15:36:23.421Z,96025.31
2023-04-27T15:38:52.438Z,96023.84
2023-04-27T15:41:19.697Z,96024.66
2023-04-27T15:43:47.953Z,96018.03
2023-04-27T15:46:15.982Z,96018.84
2023-04-27T15:48:43.335Z,96017.56
2023-04-27T15:51:10.793Z,96024.38
2023-04-27T15:53:38.152Z,96025.47
2023-04-27T15:56:05.812Z,96029.09
2023-04-27T15:58:33.379Z,96030.88
2023-04-27T16:01:01.174Z,96026.63
2023-04-27T16:03:28.638Z,96022.84
2023-04-27T16:05:55.951Z,96027.75
2023-04-27T16:08:23.286Z,96029.41
2023-04-27T16:10:50.888Z,96030.34
2023-04-27T16:13:18.188Z,96038.44
2023-04-27T16:15:45.563Z,96029.00
2023-04-27T16:18:13.055Z,96027.59
2023-04-27T16:20:40.410Z,96028.59
2023-04-27T16:23:07.633Z,96026.03
2023-04-27T16:25:35.024Z,96027.00
2023-04-27T16:28:02.387Z,96030.38
2023-04-27T16:30:29.749Z,96022.78
2023-04-27T16:32:57.252Z,96027.34
2023-04-27T16:35:24.880Z,96030.47
2023-04-27T16:37:54.239Z,96031.03
2023-04-27T16:40:21.661Z,96016.28
2023-04-27T16:42:48.905Z,96028.47
2023-04-27T16:45:16.361Z,96021.47
2023-04-27T16:47:46.213Z,96026.78
2023-04-27T16:50:14.226Z,96032.69
2023-04-27T16:52:41.543Z,96023.47
2023-04-27T16:55:09.502Z,96031.56
2023-04-27T16:57:37.376Z,96024.66
2023-04-27T17:00:06.913Z,96026.31
2023-04-27T17:02:34.291Z,96018.09
2023-04-27T17:05:02.557Z,96015.50
2023-04-27T17:07:33.138Z,96025.63
2023-04-27T17:10:01.030Z,96029.19
2023-04-27T17:12:28.316Z,96019.22
2023-04-27T17:14:55.761Z,96007.97
2023-04-27T17:17:23.155Z,96005.34
2023-04-27T17:19:50.429Z,96011.22
2023-04-27T17:22:17.784Z,96006.97
2023-04-27T17:24:45.193Z,96013.19
2023-04-27T17:27:12.539Z,96007.25
2023-04-27T17:29:39.931Z,96014.97
2023-04-27T17:32:07.207Z,96006.66
2023-04-27T17:34:34.511Z,96013.53
2023-04-27T17:37:02.240Z,96006.25
2023-04-27T17:39:29.629Z,96010.41
2023-04-27T17:41:57.442Z,96012.13
2023-04-27T17:44:25.081Z,96012.19
2023-04-27T17:46:52.725Z,96008.38
2023-04-27T17:49:20.178Z,96010.75
2023-04-27T17:51:48.736Z,96016.59
2023-04-27T17:54:16.233Z,96011.97
2023-04-27T17:56:43.530Z,96012.00
2023-04-27T17:59:11.025Z,96017.81
2023-04-27T18:01:38.342Z,96016.50
2023-04-27T18:04:14.362Z,96018.84
2023-04-27T18:06:41.851Z,96017.69
2023-04-27T18:09:09.354Z,96021.88
2023-04-27T18:11:36.761Z,96024.38
2023-04-27T18:14:04.162Z,96025.03
2023-04-27T18:16:31.616Z,96023.41
2023-04-27T18:18:59.019Z,96021.75
2023-04-27T18:21:28.514Z,96028.06
2023-04-27T18:23:56.760Z,96020.09
2023-04-27T18:26:24.026Z,96028.09
2023-04-27T18:28:51.278Z,96029.91
2023-04-27T18:31:19.461Z,96028.09
2023-04-27T18:33:47.568Z,96035.91
2023-04-27T18:36:15.057Z,96044.88
2023-04-27T18:38:42.283Z,96038.09
2023-04-27T18:41:09.682Z,96042.56
2023-04-27T18:43:37.235Z,96040.72
2023-04-27T18:46:04.940Z,96044.53
2023-04-27T18:48:32.760Z,96048.66
2023-04-27T18:51:00.198Z,96052.97
2023-04-27T18:53:28.383Z,96050.66
2023-04-27T18:55:55.992Z,96053.66
2023-04-27T18:58:23.919Z,96055.13
2023-04-27T19:00:51.413Z,96056.09
2023-04-27T19:03:18.800Z,96059.19
2023-04-27T19:05:46.512Z,96067.81
2023-04-27T19:08:13.794Z,96061.66
2023-04-27T19:10:44.098Z,96070.94
2023-04-27T19:13:11.451Z,96075.06
2023-04-27T19:15:39.660Z,96070.53
2023-04-27T19:18:10.959Z,96066.56
2023-04-27T19:20:40.106Z,96069.69
2023-04-27T19:23:09.702Z,96075.47
2023-04-27T19:25:37.429Z,96069.63
2023-04-27T19:28:06.090Z,96068.97
2023-04-27T19:30:33.388Z,96074.75
2023-04-27T19:33:00.696Z,96074.41
2023-04-27T19:35:28.531Z,96070.38
2023-04-27T19:37:56.312Z,96073.34
2023-04-27T19:40:23.596Z,96057.91
2023-04-27T19:42:51.089Z,96064.22
2023-04-27T19:45:22.647Z,96069.50
2023-04-27T19:47:50.339Z,96063.84
2023-04-27T19:50:18.223Z,96070.16
2023-04-27T19:52:45.958Z,96064.47
2023-04-27T19:55:14.122Z,96066.47
2023-04-27T19:57:41.372Z,96073.38
2023-04-27T20:00:12.707Z,96061.56
2023-04-27T20:02:42.856Z,96062.88
2023-04-27T20:05:10.953Z,96065.81
2023-04-27T20:07:38.338Z,96075.09
2023-04-27T20:10:06.150Z,96073.88
2023-04-27T20:12:51.385Z,96077.97
2023-04-27T20:15:20.965Z,96082.59
2023-04-27T20:17:48.757Z,96074.13
2023-04-27T20:20:16.076Z,96075.41
2023-04-27T20:22:43.529Z,96076.72
2023-04-27T20:25:11.035Z,96075.19
2023-04-27T20:27:38.251Z,96069.50
2023-04-27T20:30:06.227Z,96070.66
2023-04-27T20:32:33.551Z,96065.66
2023-04-27T20:35:02.808Z,96056.50
2023-04-27T20:37:30.050Z,96054.13
2023-04-27T20:39:57.313Z,96054.59
2023-04-27T20:42:24.908Z,96049.75
2023-04-27T20:44:55.152Z,96055.38
2023-04-27T20:47:22.752Z,96053.00
2023-04-27T20:49:50.137Z,96051.63
2023-04-27T20:52:17.475Z,96047.63
2023-04-27T20:54:44.782Z,96041.78
2023-04-27T20:57:14.542Z,96050.19
2023-04-27T20:59:42.057Z,96063.72
2023-04-27T21:02:09.610Z,96053.88
2023-04-27T21:04:36.987Z,96049.50
2023-04-27T21:07:04.328Z,96047.72
2023-04-27T21:09:31.878Z,96044.72
2023-04-27T21:11:59.188Z,96045.31
2023-04-27T21:14:26.426Z,96043.09
2023-04-27T21:16:53.878Z,96044.53
2023-04-27T21:19:21.135Z,96044.28
2023-04-27T21:21:48.448Z,96045.28
2023-04-27T21:24:15.876Z,96052.66
2023-04-27T21:26:43.234Z,96042.81
2023-04-27T21:29:10.471Z,96037.97
2023-04-27T21:31:37.988Z,96034.78
2023-04-27T21:34:05.243Z,96030.47
2023-04-27T21:36:32.762Z,96031.56
2023-04-27T21:39:00.181Z,96027.28
2023-04-27T21:41:27.716Z,96027.56
2023-04-27T21:43:54.918Z,96033.97
2023-04-27T21:46:24.338Z,96029.66
2023-04-27T21:48:51.702Z,96028.16
2023-04-27T21:51:19.320Z,96035.69
2023-04-27T21:53:46.516Z,96029.88
2023-04-27T21:56:14.056Z,96025.84
2023-04-27T21:58:41.458Z,96021.69
2023-04-27T22:01:08.759Z,96024.63
2023-04-27T22:03:36.273Z,96027.53
2023-04-27T22:06:03.649Z,96025.19
2023-04-27T22:08:31.361Z,96027.00
2023-04-27T22:10:58.670Z,96024.63
2023-04-27T22:13:25.831Z,96014.34
2023-04-27T22:15:53.133Z,96010.34
2023-04-27T22:18:20.489Z,96010.34
2023-04-27T22:20:47.802Z,96019.38
2023-04-27T22:23:15.077Z,96026.59
2023-04-27T22:25:43.617Z,96036.66
2023-04-27T22:28:11.357Z,96023.56
2023-04-27T22:30:41.127Z,96026.22
2023-04-27T22:33:09.113Z,96025.66
2023-04-27T22:35:39.402Z,96027.75
2023-04-27T22:38:07.836Z,96014.84
2023-04-27T22:40:35.489Z,96023.06
2023-04-27T22:43:02.640Z,96019.13
2023-04-27T22:45:29.890Z,96021.09
2023-04-27T22:47:58.035Z,96018.03
2023-04-27T22:50:25.321Z,96024.28
2023-04-27T22:52:53.402Z,96012.22
2023-04-27T22:55:20.926Z,96024.59
2023-04-27T22:57:50.292Z,96013.47
2023-04-27T23:00:17.757Z,96014.56
2023-04-27T23:02:45.259Z,96005.16
2023-04-27T23:05:12.828Z,95998.47
2023-04-27T23:07:43.811Z,95993.88
2023-04-27T23:10:11.383Z,95995.00
2023-04-27T23:12:39.154Z,95995.97
2023-04-27T23:15:06.738Z,95999.59
2023-04-27T23:17:34.588Z,96003.75
2023-04-27T23:20:06.915Z,96000.97
2023-04-27T23:22:35.997Z,95994.72
2023-04-27T23:25:03.394Z,95990.28
2023-04-27T23:27:30.696Z,95990.41
2023-04-27T23:29:57.909Z,95997.38
2023-04-27T23:32:25.381Z,95990.41
2023-04-27T23:34:55.606Z,95984.16
2023-04-27T23:37:24.746Z,95988.59
2023-04-27T23:39:52.009Z,95981.78
2023-04-27T23:42:19.437Z,95980.28
2023-04-27T23:44:46.677Z,95992.91
2023-04-27T23:47:14.029Z,95983.34
2023-04-27T23:49:44.770Z,95979.84
2023-04-27T23:52:12.730Z,95985.28
2023-04-27T23:54:39.974Z,95984.44
2023-04-27T23:57:07.292Z,95993.06
2023-04-27T23:59:37.580Z,95988.75
